createdAt,value
2017-10-08T00:02:10.049Z,1001.80
2017-10-08T00:07:25.625Z,1001.83
2017-10-08T00:08:25.618Z,1001.84
2017-10-08T00:09:46.705Z,1001.87
2017-10-08T00:10:46.635Z,1001.88
2017-10-08T00:11:25.624Z,1001.88
2017-10-08T00:13:58.073Z,1001.85
2017-10-08T00:14:57.730Z,1001.83
2017-10-08T00:16:18.744Z,1001.87
2017-10-08T00:16:57.736Z,1001.84
2017-10-08T00:17:58.000Z,1001.88
2017-10-08T00:18:57.743Z,1001.87
2017-10-08T00:19:58.290Z,1001.88
2017-10-08T00:20:57.742Z,1001.89
2017-10-08T00:21:57.749Z,1001.89
2017-10-08T00:23:18.762Z,1001.91
2017-10-08T00:25:31.642Z,1001.88
2017-10-08T00:26:50.867Z,1001.92
2017-10-08T00:27:29.851Z,1001.93
2017-10-08T00:28:50.865Z,1001.98
2017-10-08T00:34:06.449Z,1001.95
2017-10-08T00:35:06.221Z,1001.95
2017-10-08T00:37:38.607Z,1001.98
2017-10-08T00:38:38.506Z,1002.01
2017-10-08T00:39:59.333Z,1001.97
2017-10-08T00:40:59.518Z,1002.02
2017-10-08T00:41:38.324Z,1002.03
2017-10-08T00:42:38.341Z,1002.03
2017-10-08T00:43:38.517Z,1002.07
2017-10-08T00:44:59.347Z,1002.02
2017-10-08T00:45:59.472Z,1002.04
2017-10-08T00:48:10.964Z,1002.00
2017-10-08T00:52:35.672Z,1002.07
2017-10-08T00:53:14.692Z,1002.08
2017-10-08T00:54:14.657Z,1002.09
2017-10-08T00:56:35.763Z,1002.11
2017-10-08T00:58:47.037Z,1002.14
2017-10-08T00:59:46.765Z,1002.17
2017-10-08T01:00:46.770Z,1002.21
2017-10-08T01:02:07.784Z,1002.21
2017-10-08T01:03:07.788Z,1002.23
2017-10-08T01:04:07.790Z,1002.24
2017-10-08T01:05:07.788Z,1002.26
2017-10-08T01:05:46.787Z,1002.26
2017-10-08T01:08:19.165Z,1002.31
2017-10-08T01:09:39.890Z,1002.28
2017-10-08T01:13:44.451Z,1002.33
2017-10-08T01:14:23.095Z,1002.34
2017-10-08T01:15:23.102Z,1002.38
2017-10-08T01:17:55.209Z,1002.45
2017-10-08T01:18:55.199Z,1002.45
2017-10-08T01:19:55.201Z,1002.46
2017-10-08T01:21:16.217Z,1002.47
2017-10-08T01:21:55.210Z,1002.46
2017-10-08T01:22:55.206Z,1002.46
2017-10-08T01:24:16.229Z,1002.49
2017-10-08T01:24:55.213Z,1002.52
2017-10-08T01:30:31.804Z,1002.58
2017-10-08T01:33:04.232Z,1002.63
2017-10-08T01:34:24.913Z,1002.66
2017-10-08T01:35:24.917Z,1002.65
2017-10-08T01:37:36.026Z,1002.67
2017-10-08T01:38:36.014Z,1002.66
2017-10-08T01:39:36.024Z,1002.69
2017-10-08T01:40:57.031Z,1002.73
2017-10-08T01:41:36.028Z,1002.72
2017-10-08T01:42:36.022Z,1002.74
2017-10-08T01:43:36.022Z,1002.73
2017-10-08T01:44:36.030Z,1002.76
2017-10-08T01:45:57.036Z,1002.76
2017-10-08T01:46:57.046Z,1002.75
2017-10-08T01:50:40.527Z,1002.79
2017-10-08T01:52:01.536Z,1002.78
2017-10-08T01:56:06.096Z,1002.90
2017-10-08T01:58:17.166Z,1002.89
2017-10-08T01:59:17.171Z,1002.92
2017-10-08T02:03:23.186Z,1002.92
2017-10-08T02:04:23.179Z,1002.99
2017-10-08T02:05:23.177Z,1002.96
2017-10-08T02:06:23.184Z,1002.99
2017-10-08T02:07:23.186Z,1002.98
2017-10-08T02:08:44.203Z,1002.99
2017-10-08T02:09:44.215Z,1003.00
2017-10-08T02:10:44.206Z,1003.02
2017-10-08T02:11:23.192Z,1003.05
2017-10-08T02:12:23.205Z,1003.03
2017-10-08T02:13:23.196Z,1003.03
2017-10-08T02:15:55.602Z,1003.08
2017-10-08T02:16:55.299Z,1003.09
2017-10-08T02:19:48.408Z,1003.13
2017-10-08T02:20:27.394Z,1003.17
2017-10-08T02:22:59.791Z,1003.19
2017-10-08T02:24:20.500Z,1003.19
2017-10-08T02:25:20.503Z,1003.19
2017-10-08T02:27:31.601Z,1003.30
2017-10-08T02:28:52.603Z,1003.28
2017-10-08T02:29:31.594Z,1003.29
2017-10-08T02:32:03.977Z,1003.34
2017-10-08T02:36:07.906Z,1003.45
2017-10-08T02:37:07.896Z,1003.43
2017-10-08T02:38:28.924Z,1003.43
2017-10-08T02:39:07.902Z,1003.44
2017-10-08T02:40:07.904Z,1003.42
2017-10-08T02:41:28.913Z,1003.43
2017-10-08T02:42:28.915Z,1003.45
2017-10-08T02:43:28.924Z,1003.46
2017-10-08T02:46:01.348Z,1003.47
2017-10-08T02:46:40.109Z,1003.48
2017-10-08T02:48:01.031Z,1003.50
2017-10-08T02:48:40.020Z,1003.56
2017-10-08T02:49:40.021Z,1003.58
2017-10-08T02:51:01.034Z,1003.63
2017-10-08T02:51:40.030Z,1003.63
2017-10-08T02:52:40.032Z,1003.64
2017-10-08T02:53:40.039Z,1003.66
2017-10-08T02:54:40.034Z,1003.65
2017-10-08T02:57:33.432Z,1003.68
2017-10-08T03:01:37.342Z,1003.67
2017-10-08T03:03:48.706Z,1003.73
2017-10-08T03:04:48.421Z,1003.74
2017-10-08T03:06:09.439Z,1003.79
2017-10-08T03:07:09.444Z,1003.76
2017-10-08T03:07:48.430Z,1003.80
2017-10-08T03:08:48.438Z,1003.86
2017-10-08T03:09:48.433Z,1003.91
2017-10-08T03:10:48.435Z,1003.90
2017-10-08T03:13:41.840Z,1003.96
2017-10-08T03:15:52.654Z,1004.01
2017-10-08T03:16:52.654Z,1004.05
2017-10-08T03:19:46.060Z,1004.08
2017-10-08T03:20:24.750Z,1004.09
2017-10-08T03:22:56.858Z,1004.11
2017-10-08T03:24:17.866Z,1004.11
2017-10-08T03:24:56.856Z,1004.14
2017-10-08T03:27:29.255Z,1004.15
2017-10-08T03:31:54.175Z,1004.18
2017-10-08T03:32:33.161Z,1004.18
2017-10-08T03:33:33.168Z,1004.16
2017-10-08T03:34:33.166Z,1004.22
2017-10-08T03:38:58.677Z,1004.30
2017-10-08T03:41:09.773Z,1004.33
2017-10-08T03:42:09.760Z,1004.41
2017-10-08T03:43:09.761Z,1004.37
2017-10-08T03:44:09.769Z,1004.42
2017-10-08T03:45:09.762Z,1004.43
2017-10-08T03:46:09.769Z,1004.43
2017-10-08T03:47:09.770Z,1004.44
2017-10-08T03:49:42.144Z,1004.43
2017-10-08T03:50:41.872Z,1004.46
2017-10-08T03:54:46.371Z,1004.50
2017-10-08T03:55:46.118Z,1004.51
2017-10-08T03:57:07.085Z,1004.52
2017-10-08T03:57:46.151Z,1004.55
2017-10-08T03:59:07.082Z,1004.53
2017-10-08T03:59:46.091Z,1004.60
2017-10-08T04:01:07.090Z,1004.59
2017-10-08T04:01:46.084Z,1004.60
2017-10-08T04:04:39.491Z,1004.64
2017-10-08T04:05:39.196Z,1004.67
2017-10-08T04:06:39.192Z,1004.63
2017-10-08T04:08:50.297Z,1004.73
2017-10-08T04:11:22.658Z,1004.75
2017-10-08T04:14:15.495Z,1004.75
2017-10-08T04:14:54.473Z,1004.80
2017-10-08T04:17:47.886Z,1004.79
2017-10-08T04:18:26.580Z,1004.82
2017-10-08T04:19:47.588Z,1004.84
2017-10-08T04:20:26.582Z,1004.85
2017-10-08T04:23:19.961Z,1004.89
2017-10-08T04:23:58.681Z,1004.87
2017-10-08T04:26:51.792Z,1004.90
2017-10-08T04:27:30.776Z,1004.92
2017-10-08T04:28:30.775Z,1004.95
2017-10-08T04:29:30.780Z,1004.92
2017-10-08T04:32:03.158Z,1005.06
2017-10-08T04:33:02.875Z,1005.05
2017-10-08T04:34:02.877Z,1005.07
2017-10-08T04:36:35.058Z,1005.10
2017-10-08T04:37:35.061Z,1005.06
2017-10-08T04:38:35.063Z,1005.09
2017-10-08T04:39:35.062Z,1005.12
2017-10-08T04:40:56.075Z,1005.12
2017-10-08T04:41:56.071Z,1005.13
2017-10-08T04:42:56.073Z,1005.17
2017-10-08T04:43:56.076Z,1005.17
2017-10-08T04:44:35.069Z,1005.13
2017-10-08T04:45:35.070Z,1005.18
2017-10-08T04:46:56.084Z,1005.19
2017-10-08T04:49:07.533Z,1005.25
2017-10-08T04:50:07.233Z,1005.25
2017-10-08T04:51:28.250Z,1005.27
2017-10-08T04:55:11.712Z,1005.27
2017-10-08T04:57:43.534Z,1005.33
2017-10-08T04:59:04.537Z,1005.31
2017-10-08T05:03:09.018Z,1005.36
2017-10-08T05:04:09.690Z,1005.36
2017-10-08T05:04:48.007Z,1005.35
2017-10-08T05:07:20.378Z,1005.42
2017-10-08T05:10:13.217Z,1005.46
2017-10-08T05:10:52.200Z,1005.47
2017-10-08T05:12:13.209Z,1005.51
2017-10-08T05:12:52.202Z,1005.53
2017-10-08T05:13:52.210Z,1005.56
2017-10-08T05:15:13.209Z,1005.61
2017-10-08T05:15:52.206Z,1005.57
2017-10-08T05:16:52.214Z,1005.62
2017-10-08T05:22:28.783Z,1005.70
2017-10-08T05:25:22.185Z,1005.73
2017-10-08T05:26:00.871Z,1005.80
2017-10-08T05:27:21.883Z,1005.78
2017-10-08T05:28:21.882Z,1005.81
2017-10-08T05:30:54.288Z,1005.86
2017-10-08T05:33:26.082Z,1005.85
2017-10-08T05:34:05.068Z,1005.86
2017-10-08T05:35:05.066Z,1005.83
2017-10-08T05:36:05.076Z,1005.82
2017-10-08T05:38:37.481Z,1005.93
2017-10-08T05:39:37.169Z,1005.93
2017-10-08T05:45:34.468Z,1005.99
2017-10-08T05:47:27.824Z,1005.98
2017-10-08T05:50:00.195Z,1006.03
2017-10-08T05:50:38.907Z,1006.06
2017-10-08T05:51:38.914Z,1006.09
2017-10-08T05:52:38.910Z,1006.10
2017-10-08T05:55:11.301Z,1006.12
2017-10-08T05:56:11.000Z,1006.17
2017-10-08T05:57:32.015Z,1006.15
2017-10-08T05:58:11.004Z,1006.16
2017-10-08T06:01:04.396Z,1006.23
2017-10-08T06:02:04.216Z,1006.27
2017-10-08T06:03:04.113Z,1006.28
2017-10-08T06:04:04.676Z,1006.28
2017-10-08T06:06:36.509Z,1006.36
2017-10-08T06:09:08.314Z,1006.38
2017-10-08T06:09:47.292Z,1006.38
2017-10-08T06:12:19.670Z,1006.45
2017-10-08T06:13:19.382Z,1006.48
2017-10-08T06:14:19.390Z,1006.51
2017-10-08T06:17:12.502Z,1006.55
2017-10-08T06:17:51.485Z,1006.51
2017-10-08T06:19:12.494Z,1006.53
2017-10-08T06:20:12.516Z,1006.54
2017-10-08T06:22:23.898Z,1006.58
2017-10-08T06:26:27.793Z,1006.63
2017-10-08T06:27:27.793Z,1006.65
2017-10-08T06:28:27.790Z,1006.68
2017-10-08T06:29:27.791Z,1006.63
2017-10-08T06:30:27.791Z,1006.67
2017-10-08T06:31:48.801Z,1006.68
2017-10-08T06:32:27.792Z,1006.68
2017-10-08T06:33:48.802Z,1006.70
2017-10-08T06:34:48.805Z,1006.74
2017-10-08T06:35:48.806Z,1006.72
2017-10-08T06:36:48.822Z,1006.79
2017-10-08T06:37:48.807Z,1006.75
2017-10-08T06:38:27.798Z,1006.73
2017-10-08T06:39:27.799Z,1006.79
2017-10-08T06:40:48.815Z,1006.85
2017-10-08T06:43:21.193Z,1006.86
2017-10-08T06:43:59.892Z,1006.82
2017-10-08T06:45:20.908Z,1006.86
2017-10-08T06:45:59.898Z,1006.83
2017-10-08T06:46:59.904Z,1006.88
2017-10-08T06:48:20.908Z,1006.85
2017-10-08T06:48:59.897Z,1006.86
2017-10-08T06:49:59.914Z,1006.82
2017-10-08T06:50:59.904Z,1006.89
2017-10-08T06:51:59.913Z,1006.87
2017-10-08T06:52:59.903Z,1006.94
2017-10-08T06:54:20.915Z,1006.90
2017-10-08T06:55:20.926Z,1006.96
2017-10-08T06:57:32.326Z,1006.93
2017-10-08T06:58:53.009Z,1006.94
2017-10-08T06:59:53.011Z,1006.96
2017-10-08T07:02:04.108Z,1007.04
2017-10-08T07:04:36.506Z,1007.08
2017-10-08T07:05:36.196Z,1007.12
2017-10-08T07:06:36.197Z,1007.13
2017-10-08T07:07:36.195Z,1007.19
2017-10-08T07:08:36.198Z,1007.16
2017-10-08T07:09:36.205Z,1007.16
2017-10-08T07:10:36.199Z,1007.18
2017-10-08T07:11:57.210Z,1007.29
2017-10-08T07:12:57.214Z,1007.30
2017-10-08T07:13:36.205Z,1007.31
2017-10-08T07:14:57.220Z,1007.28
2017-10-08T07:17:29.612Z,1007.28
2017-10-08T07:18:08.304Z,1007.32
2017-10-08T07:20:40.399Z,1007.46
2017-10-08T07:22:01.410Z,1007.43
2017-10-08T07:22:40.399Z,1007.42
2017-10-08T07:25:12.778Z,1007.44
2017-10-08T07:26:12.497Z,1007.45
2017-10-08T07:27:33.504Z,1007.48
2017-10-08T07:28:12.497Z,1007.47
2017-10-08T07:29:33.510Z,1007.48
2017-10-08T07:31:44.896Z,1007.51
2017-10-08T07:34:16.694Z,1007.54
2017-10-08T07:36:49.067Z,1007.64
2017-10-08T07:41:13.995Z,1007.74
2017-10-08T07:42:13.995Z,1007.76
2017-10-08T07:44:25.349Z,1007.78
2017-10-08T07:45:25.080Z,1007.81
2017-10-08T07:46:25.077Z,1007.81
2017-10-08T07:47:25.079Z,1007.76
2017-10-08T07:49:57.466Z,1007.76
2017-10-08T07:50:57.178Z,1007.79
2017-10-08T07:51:57.174Z,1007.83
2017-10-08T07:54:30.178Z,1007.86
2017-10-08T07:55:29.879Z,1007.88
2017-10-08T07:56:50.727Z,1007.92
2017-10-08T07:57:29.718Z,1007.93
2017-10-08T08:00:02.088Z,1007.99
2017-10-08T08:01:01.811Z,1008.02
2017-10-08T08:02:22.818Z,1008.05
2017-10-08T08:03:01.817Z,1008.03
2017-10-08T08:04:22.823Z,1008.03
2017-10-08T08:05:01.823Z,1008.05
2017-10-08T08:06:22.822Z,1008.07
2017-10-08T08:07:01.818Z,1008.08
2017-10-08T08:08:01.822Z,1008.10
2017-10-08T08:15:10.511Z,1008.20
2017-10-08T08:16:10.509Z,1008.21
2017-10-08T08:23:19.189Z,1008.33
2017-10-08T08:25:51.654Z,1008.32
2017-10-08T08:28:44.459Z,1008.41
2017-10-08T08:29:23.437Z,1008.45
2017-10-08T08:30:23.446Z,1008.41
2017-10-08T08:31:23.446Z,1008.45
2017-10-08T08:32:23.450Z,1008.43
2017-10-08T08:33:23.449Z,1008.42
2017-10-08T08:34:23.448Z,1008.47
2017-10-08T08:35:44.472Z,1008.48
2017-10-08T08:36:44.460Z,1008.46
2017-10-08T08:37:23.450Z,1008.53
2017-10-08T08:38:44.498Z,1008.54
2017-10-08T08:42:48.977Z,1008.53
2017-10-08T08:43:27.963Z,1008.59
2017-10-08T08:44:27.956Z,1008.60
2017-10-08T08:45:49.002Z,1008.61
2017-10-08T08:48:01.104Z,1008.67
2017-10-08T08:49:00.427Z,1008.69
2017-10-08T08:51:32.508Z,1008.69
2017-10-08T08:52:32.790Z,1008.74
2017-10-08T08:53:53.612Z,1008.73
2017-10-08T08:54:32.592Z,1008.75
2017-10-08T08:55:32.512Z,1008.74
2017-10-08T08:56:32.555Z,1008.76
2017-10-08T08:57:53.526Z,1008.78
2017-10-08T08:58:32.585Z,1008.86
2017-10-08T08:59:32.518Z,1008.84
2017-10-08T09:00:32.522Z,1008.85
2017-10-08T09:01:53.536Z,1008.87
2017-10-08T09:02:32.527Z,1008.91
2017-10-08T09:03:53.546Z,1008.91
2017-10-08T09:04:32.529Z,1008.93
2017-10-08T09:05:32.607Z,1008.89
2017-10-08T09:06:53.633Z,1008.94
2017-10-08T09:10:37.127Z,1008.98
2017-10-08T09:13:09.221Z,1009.08
2017-10-08T09:14:09.198Z,1009.04
2017-10-08T09:16:41.603Z,1009.06
2017-10-08T09:21:06.695Z,1009.12
2017-10-08T09:21:45.663Z,1009.10
2017-10-08T09:22:45.655Z,1009.13
2017-10-08T09:23:45.651Z,1009.13
2017-10-08T09:24:45.652Z,1009.13
2017-10-08T09:25:45.655Z,1009.19
2017-10-08T09:26:45.716Z,1009.17
2017-10-08T09:28:06.669Z,1009.20
2017-10-08T09:29:06.670Z,1009.20
2017-10-08T09:30:06.673Z,1009.22
2017-10-08T09:30:45.690Z,1009.23
2017-10-08T09:31:45.668Z,1009.23
2017-10-08T09:33:06.686Z,1009.25
2017-10-08T09:35:18.053Z,1009.35
2017-10-08T09:36:38.776Z,1009.34
2017-10-08T09:37:38.778Z,1009.39
2017-10-08T09:38:17.775Z,1009.40
2017-10-08T09:39:17.782Z,1009.41
2017-10-08T09:40:17.778Z,1009.47
2017-10-08T09:41:17.778Z,1009.40
2017-10-08T09:42:17.786Z,1009.42
2017-10-08T09:43:38.797Z,1009.45
2017-10-08T09:45:50.166Z,1009.42
2017-10-08T09:46:49.885Z,1009.47
2017-10-08T09:49:21.980Z,1009.50
2017-10-08T09:50:21.980Z,1009.53
2017-10-08T09:51:21.989Z,1009.53
2017-10-08T09:52:42.996Z,1009.54
2017-10-08T09:53:21.990Z,1009.51
2017-10-08T09:56:15.385Z,1009.59
2017-10-08T09:56:54.085Z,1009.61
2017-10-08T10:01:19.601Z,1009.66
2017-10-08T10:02:19.319Z,1009.68
2017-10-08T10:02:58.310Z,1009.67
2017-10-08T10:03:58.310Z,1009.72
2017-10-08T10:04:58.317Z,1009.77
2017-10-08T10:05:58.322Z,1009.74
2017-10-08T10:11:55.937Z,1009.83
2017-10-08T10:15:39.409Z,1009.87
2017-10-08T10:16:39.414Z,1009.89
2017-10-08T10:17:39.407Z,1009.89
2017-10-08T10:20:11.803Z,1009.95
2017-10-08T10:21:32.518Z,1009.95
2017-10-08T10:22:32.518Z,1010.03
2017-10-08T10:23:32.523Z,1009.96
2017-10-08T10:24:11.515Z,1009.96
2017-10-08T10:25:11.525Z,1010.03
2017-10-08T10:27:43.920Z,1010.05
2017-10-08T10:29:04.632Z,1010.09
2017-10-08T10:31:15.727Z,1010.07
2017-10-08T10:36:52.300Z,1010.18
2017-10-08T10:38:13.310Z,1010.15
2017-10-08T10:39:13.312Z,1010.18
2017-10-08T10:41:24.359Z,1010.16
2017-10-08T10:42:24.046Z,1010.23
2017-10-08T10:43:24.049Z,1010.24
2017-10-08T10:44:45.068Z,1010.23
2017-10-08T10:45:45.060Z,1010.24
2017-10-08T10:46:45.066Z,1010.28
2017-10-08T10:50:28.552Z,1010.29
2017-10-08T10:51:28.550Z,1010.27
2017-10-08T10:54:00.924Z,1010.30
2017-10-08T10:55:00.650Z,1010.34
2017-10-08T10:56:21.662Z,1010.34
2017-10-08T10:58:32.759Z,1010.39
2017-10-08T10:59:32.751Z,1010.39
2017-10-08T11:00:32.759Z,1010.38
2017-10-08T11:04:37.247Z,1010.39
2017-10-08T11:05:58.251Z,1010.41
2017-10-08T11:06:37.241Z,1010.40
2017-10-08T11:09:09.630Z,1010.46
2017-10-08T11:11:41.594Z,1010.50
2017-10-08T11:13:02.467Z,1010.52
2017-10-08T11:13:41.450Z,1010.50
2017-10-08T11:14:41.472Z,1010.50
2017-10-08T11:16:02.471Z,1010.46
2017-10-08T11:16:41.462Z,1010.49
2017-10-08T11:17:41.465Z,1010.54
2017-10-08T11:18:41.497Z,1010.53
2017-10-08T11:19:41.471Z,1010.49
2017-10-08T11:20:41.477Z,1010.51
2017-10-08T11:21:41.477Z,1010.55
2017-10-08T11:22:41.478Z,1010.52
2017-10-08T11:26:45.989Z,1010.53
2017-10-08T11:27:45.982Z,1010.54
2017-10-08T11:28:45.987Z,1010.55
2017-10-08T11:29:45.991Z,1010.57
2017-10-08T11:30:45.993Z,1010.56
2017-10-08T11:31:45.992Z,1010.56
2017-10-08T11:32:45.999Z,1010.56
2017-10-08T11:33:45.999Z,1010.60
2017-10-08T11:34:46.009Z,1010.60
2017-10-08T11:35:46.004Z,1010.61
2017-10-08T11:36:46.013Z,1010.61
2017-10-08T11:37:46.012Z,1010.66
2017-10-08T11:38:46.023Z,1010.64
2017-10-08T11:39:46.016Z,1010.64
2017-10-08T11:40:46.024Z,1010.64
2017-10-08T11:41:46.023Z,1010.70
2017-10-08T11:42:46.038Z,1010.69
2017-10-08T11:43:46.034Z,1010.69
2017-10-08T11:44:46.042Z,1010.73
2017-10-08T11:45:46.042Z,1010.69
2017-10-08T11:46:46.046Z,1010.70
2017-10-08T11:47:46.048Z,1010.70
2017-10-08T11:48:46.054Z,1010.72
2017-10-08T11:49:46.048Z,1010.73
2017-10-08T11:50:46.061Z,1010.74
2017-10-08T11:51:46.055Z,1010.77
2017-10-08T11:52:46.060Z,1010.70
2017-10-08T11:53:46.065Z,1010.72
2017-10-08T11:54:46.064Z,1010.78
2017-10-08T11:55:46.074Z,1010.79
2017-10-08T11:56:46.071Z,1010.82
2017-10-08T11:57:46.117Z,1010.81
2017-10-08T11:58:46.082Z,1010.80
2017-10-08T11:59:46.083Z,1010.78
2017-10-08T12:00:46.089Z,1010.80
2017-10-08T12:01:46.085Z,1010.76
2017-10-08T12:02:46.095Z,1010.78
2017-10-08T12:03:46.097Z,1010.80
2017-10-08T12:04:46.097Z,1010.77
2017-10-08T12:05:46.104Z,1010.76
2017-10-08T12:06:46.103Z,1010.79
2017-10-08T12:07:46.108Z,1010.79
2017-10-08T12:08:46.111Z,1010.79
2017-10-08T12:09:46.113Z,1010.87
2017-10-08T12:10:46.123Z,1010.83
2017-10-08T12:11:46.118Z,1010.89
2017-10-08T12:12:46.124Z,1010.88
2017-10-08T12:13:46.125Z,1010.83
2017-10-08T12:14:46.129Z,1010.85
2017-10-08T12:15:46.129Z,1010.85
2017-10-08T12:16:46.133Z,1010.88
2017-10-08T12:17:46.138Z,1010.86
2017-10-08T12:18:46.146Z,1010.90
2017-10-08T12:19:46.149Z,1010.91
2017-10-08T12:20:46.199Z,1010.85
2017-10-08T12:21:46.159Z,1010.91
2017-10-08T12:22:46.153Z,1010.96
2017-10-08T12:23:46.157Z,1010.92
2017-10-08T12:24:46.159Z,1010.95
2017-10-08T12:25:46.162Z,1010.96
2017-10-08T12:26:46.177Z,1010.95
2017-10-08T12:27:46.173Z,1010.94
2017-10-08T12:28:46.173Z,1010.97
2017-10-08T12:29:46.181Z,1011.02
2017-10-08T12:30:46.180Z,1010.95
2017-10-08T12:31:46.193Z,1010.97
2017-10-08T12:32:46.197Z,1010.94
2017-10-08T12:33:46.195Z,1010.94
2017-10-08T12:34:46.194Z,1010.97
2017-10-08T12:35:46.206Z,1010.99
2017-10-08T12:36:46.198Z,1010.99
2017-10-08T12:37:46.211Z,1010.99
2017-10-08T12:38:46.220Z,1010.97
2017-10-08T12:39:46.214Z,1011.05
2017-10-08T12:40:46.214Z,1011.02
2017-10-08T12:41:46.223Z,1011.02
2017-10-08T12:42:46.217Z,1011.01
2017-10-08T12:43:46.222Z,1010.99
2017-10-08T12:44:46.222Z,1011.04
2017-10-08T12:45:46.229Z,1011.06
2017-10-08T12:46:46.233Z,1011.03
2017-10-08T12:47:46.235Z,1011.05
2017-10-08T12:48:46.234Z,1011.02
2017-10-08T12:49:46.240Z,1011.00
2017-10-08T12:50:46.250Z,1011.08
2017-10-08T12:51:46.245Z,1011.07
2017-10-08T12:52:46.250Z,1011.03
2017-10-08T12:53:46.252Z,1011.07
2017-10-08T12:54:46.259Z,1011.06
2017-10-08T12:55:46.258Z,1011.08
2017-10-08T12:56:46.292Z,1011.08
2017-10-08T12:57:46.264Z,1011.05
2017-10-08T12:58:46.269Z,1011.06
2017-10-08T12:59:46.269Z,1011.10
2017-10-08T13:00:46.275Z,1011.12
2017-10-08T13:01:46.278Z,1011.14
2017-10-08T13:02:46.283Z,1011.09
2017-10-08T13:03:46.281Z,1011.13
2017-10-08T13:04:46.293Z,1011.12
2017-10-08T13:05:46.296Z,1011.10
2017-10-08T13:06:46.342Z,1011.16
2017-10-08T13:07:46.295Z,1011.15
2017-10-08T13:08:46.302Z,1011.09
2017-10-08T13:09:46.311Z,1011.14
2017-10-08T13:10:46.303Z,1011.15
2017-10-08T13:11:46.310Z,1011.14
2017-10-08T13:12:46.312Z,1011.15
2017-10-08T13:13:46.316Z,1011.14
2017-10-08T13:14:46.320Z,1011.19
2017-10-08T13:15:46.322Z,1011.18
2017-10-08T13:16:46.324Z,1011.18
2017-10-08T13:17:46.329Z,1011.18
2017-10-08T13:18:46.345Z,1011.20
2017-10-08T13:19:46.331Z,1011.15
2017-10-08T13:20:46.336Z,1011.17
2017-10-08T13:21:46.338Z,1011.14
2017-10-08T13:22:46.341Z,1011.13
2017-10-08T13:23:46.344Z,1011.19
2017-10-08T13:24:46.348Z,1011.17
2017-10-08T13:25:46.352Z,1011.17
2017-10-08T13:26:46.354Z,1011.18
2017-10-08T13:27:46.369Z,1011.19
2017-10-08T13:28:46.366Z,1011.14
2017-10-08T13:29:46.362Z,1011.12
2017-10-08T13:30:46.374Z,1011.13
2017-10-08T13:31:46.375Z,1011.17
2017-10-08T13:32:46.374Z,1011.20
2017-10-08T13:33:46.380Z,1011.19
2017-10-08T13:34:46.378Z,1011.19
2017-10-08T13:35:46.382Z,1011.17
2017-10-08T13:36:46.393Z,1011.21
2017-10-08T13:37:46.390Z,1011.20
2017-10-08T13:38:46.393Z,1011.27
2017-10-08T13:39:46.396Z,1011.18
2017-10-08T13:40:46.399Z,1011.22
2017-10-08T13:41:46.404Z,1011.19
2017-10-08T13:42:46.404Z,1011.21
2017-10-08T13:43:46.407Z,1011.22
2017-10-08T13:44:46.415Z,1011.20
2017-10-08T13:45:46.420Z,1011.28
2017-10-08T13:46:46.416Z,1011.26
2017-10-08T13:47:46.426Z,1011.27
2017-10-08T13:48:46.424Z,1011.22
2017-10-08T13:49:46.424Z,1011.27
2017-10-08T13:50:46.434Z,1011.27
2017-10-08T13:51:46.440Z,1011.28
2017-10-08T13:52:46.441Z,1011.31
2017-10-08T13:53:46.442Z,1011.29
2017-10-08T13:54:46.444Z,1011.26
2017-10-08T13:55:46.441Z,1011.27
2017-10-08T13:56:46.450Z,1011.29
2017-10-08T13:57:46.455Z,1011.30
2017-10-08T13:58:46.455Z,1011.31
2017-10-08T13:59:46.460Z,1011.32
2017-10-08T14:00:46.462Z,1011.32
2017-10-08T14:01:46.461Z,1011.29
2017-10-08T14:02:46.473Z,1011.33
2017-10-08T14:03:46.471Z,1011.36
2017-10-08T14:04:46.476Z,1011.40
2017-10-08T14:05:46.475Z,1011.34
2017-10-08T14:06:46.478Z,1011.31
2017-10-08T14:07:46.476Z,1011.35
2017-10-08T14:08:46.488Z,1011.35
2017-10-08T14:09:46.486Z,1011.40
2017-10-08T14:10:46.495Z,1011.35
2017-10-08T14:11:46.493Z,1011.34
2017-10-08T14:12:46.495Z,1011.35
2017-10-08T14:13:46.502Z,1011.40
2017-10-08T14:14:46.503Z,1011.41
2017-10-08T14:15:46.514Z,1011.36
2017-10-08T14:16:46.505Z,1011.35
2017-10-08T14:17:46.514Z,1011.38
2017-10-08T14:18:46.512Z,1011.39
2017-10-08T14:19:46.511Z,1011.37
2017-10-08T14:20:46.514Z,1011.40
2017-10-08T14:21:46.519Z,1011.42
2017-10-08T14:22:46.520Z,1011.44
2017-10-08T14:23:46.521Z,1011.45
2017-10-08T14:24:46.524Z,1011.48
2017-10-08T14:25:46.535Z,1011.48
2017-10-08T14:26:46.531Z,1011.48
2017-10-08T14:27:46.534Z,1011.47
2017-10-08T14:28:46.540Z,1011.54
2017-10-08T14:29:46.545Z,1011.48
2017-10-08T14:30:46.543Z,1011.51
2017-10-08T14:31:46.542Z,1011.52
2017-10-08T14:32:46.550Z,1011.52
2017-10-08T14:33:46.556Z,1011.52
2017-10-08T14:34:46.557Z,1011.46
2017-10-08T14:35:46.566Z,1011.53
2017-10-08T14:36:46.558Z,1011.53
2017-10-08T14:37:46.558Z,1011.54
2017-10-08T14:38:46.565Z,1011.55
2017-10-08T14:39:46.566Z,1011.58
2017-10-08T14:40:46.566Z,1011.58
2017-10-08T14:41:46.584Z,1011.59
2017-10-08T14:42:46.572Z,1011.57
2017-10-08T14:43:46.575Z,1011.64
2017-10-08T14:44:46.575Z,1011.63
2017-10-08T14:45:46.584Z,1011.65
2017-10-08T14:46:46.581Z,1011.63
2017-10-08T14:47:46.589Z,1011.63
2017-10-08T14:48:46.586Z,1011.67
2017-10-08T14:49:46.591Z,1011.64
2017-10-08T14:50:46.594Z,1011.61
2017-10-08T14:51:46.597Z,1011.67
2017-10-08T14:52:46.603Z,1011.70
2017-10-08T14:53:46.601Z,1011.70
2017-10-08T14:54:46.601Z,1011.70
2017-10-08T14:55:46.601Z,1011.70
2017-10-08T14:56:46.614Z,1011.70
2017-10-08T14:57:46.610Z,1011.72
2017-10-08T14:58:46.612Z,1011.72
2017-10-08T14:59:46.615Z,1011.73
2017-10-08T15:00:46.617Z,1011.68
2017-10-08T15:01:46.621Z,1011.67
2017-10-08T15:02:46.623Z,1011.72
2017-10-08T15:03:46.626Z,1011.70
2017-10-08T15:04:46.630Z,1011.63
2017-10-08T15:05:46.632Z,1011.67
2017-10-08T15:06:46.636Z,1011.73
2017-10-08T15:07:46.634Z,1011.70
2017-10-08T15:08:46.633Z,1011.70
2017-10-08T15:09:46.638Z,1011.69
2017-10-08T15:10:46.644Z,1011.75
2017-10-08T15:11:46.650Z,1011.74
2017-10-08T15:12:46.653Z,1011.69
2017-10-08T15:13:46.648Z,1011.70
2017-10-08T15:14:46.647Z,1011.72
2017-10-08T15:15:46.650Z,1011.74
2017-10-08T15:16:46.656Z,1011.75
2017-10-08T15:17:46.652Z,1011.77
2017-10-08T15:18:46.663Z,1011.79
2017-10-08T15:19:46.658Z,1011.80
2017-10-08T15:20:46.662Z,1011.79
2017-10-08T15:21:46.665Z,1011.78
2017-10-08T15:22:46.683Z,1011.81
2017-10-08T15:23:46.678Z,1011.77
2017-10-08T15:24:46.675Z,1011.79
2017-10-08T15:25:46.673Z,1011.80
2017-10-08T15:26:46.674Z,1011.80
2017-10-08T15:27:46.685Z,1011.85
2017-10-08T15:28:46.702Z,1011.81
2017-10-08T15:29:46.686Z,1011.80
2017-10-08T15:30:46.682Z,1011.81
2017-10-08T15:31:46.688Z,1011.82
2017-10-08T15:32:46.692Z,1011.82
2017-10-08T15:33:46.699Z,1011.85
2017-10-08T15:34:46.693Z,1011.84
2017-10-08T15:35:46.693Z,1011.84
2017-10-08T15:36:46.702Z,1011.83
2017-10-08T15:37:46.701Z,1011.85
2017-10-08T15:38:46.704Z,1011.87
2017-10-08T15:39:46.710Z,1011.85
2017-10-08T15:40:46.712Z,1011.88
2017-10-08T15:41:46.710Z,1011.92
2017-10-08T15:42:46.715Z,1011.89
2017-10-08T15:43:46.734Z,1011.89
2017-10-08T15:44:46.714Z,1011.89
2017-10-08T15:45:46.718Z,1011.90
2017-10-08T15:46:46.728Z,1011.90
2017-10-08T15:47:46.724Z,1011.90
2017-10-08T15:48:46.726Z,1011.93
2017-10-08T15:49:46.728Z,1011.88
2017-10-08T15:50:46.740Z,1011.93
2017-10-08T15:51:46.730Z,1011.93
2017-10-08T15:52:46.735Z,1011.93
2017-10-08T15:53:46.737Z,1011.97
2017-10-08T15:54:46.741Z,1011.98
2017-10-08T15:55:46.739Z,1011.97
2017-10-08T15:56:46.741Z,1012.00
2017-10-08T15:57:46.746Z,1011.98
2017-10-08T15:58:46.755Z,1011.99
2017-10-08T15:59:46.760Z,1011.97
2017-10-08T16:00:46.753Z,1012.03
2017-10-08T16:01:46.756Z,1012.03
2017-10-08T16:02:46.766Z,1012.04
2017-10-08T16:03:46.755Z,1012.06
2017-10-08T16:04:46.761Z,1012.10
2017-10-08T16:05:46.767Z,1012.14
2017-10-08T16:06:46.765Z,1012.14